Eiwamaru — JG5742 — position and weather

sailwx.info

Track history (hours):
 
Tides and Currents Weather Stations Pressure Air Temp Water Temp Dewpoint Dewpoint Depression Visibility Wind Speed Wind Dir Waves Ship Positions

Eiwamaru

Last reported at 2016-Feb-10 11:33 UTC. Time now 2016-Feb-11 00:27 UTC.
Position N 35°15' E 139°46'.

Length 80 m; draft 5.4 m.

Type: Tanker. MMSI: 431101045.

Date/timePositionNaut miles runAvg speedWind from/ knotsBaromVisibWave heightAir tempDewpointWater temp
2016-Feb-10 11:33N 35°15' E 139°46'1211.8
2016-Feb-10 10:33N 35°27' E 139°45'4 4.2
2016-Feb-10 09:33N 35°31' E 139°46'0 0.0
2016-Feb-10 08:33N 35°31' E 139°46'0 0.0
2016-Feb-10 07:33N 35°31' E 139°46'0 0.0
2016-Feb-10 06:33N 35°31' E 139°46'7 7.1
2016-Feb-10 05:33N 35°31' E 139°55'6 6.0
2016-Feb-10 04:33N 35°31' E 140°03'0 0.0
2016-Feb-10 03:33N 35°31' E 140°02'0 0.0
2016-Feb-10 02:33N 35°31' E 140°02'0 0.0
2016-Feb-10 01:33N 35°31' E 140°02'0 0.0
2016-Feb-10 00:33N 35°31' E 140°02'0 0.0
2016-Feb-09 23:33N 35°31' E 140°03'0 0.0
2016-Feb-09 22:33N 35°31' E 140°03'1 1.3
2016-Feb-09 21:33N 35°32' E 140°01'0 0.0
2016-Feb-09 20:33N 35°32' E 140°01'0 0.0
2016-Feb-09 19:33N 35°32' E 140°01'0 0.0
2016-Feb-09 18:33N 35°32' E 140°01'0 0.0
2016-Feb-09 17:32N 35°32' E 140°01'0 0.0
2016-Feb-09 16:33N 35°32' E 140°01'0 0.0
2016-Feb-09 15:33N 35°32' E 140°01'0 0.0
2016-Feb-09 14:33N 35°32' E 140°01'0 0.0
2016-Feb-09 13:33N 35°32' E 140°01'0 0.0
2016-Feb-09 12:32N 35°32' E 140°01'0 0.0
2016-Feb-09 11:31N 35°32' E 140°01'0 0.0
2016-Feb-09 10:32N 35°32' E 140°01'0 0.0
2016-Feb-09 09:33N 35°32' E 140°01'0 0.0
2016-Feb-09 08:33N 35°32' E 140°01'0 0.1
2016-Feb-09 07:32N 35°32' E 140°01'0 0.0
2016-Feb-09 06:26N 35°32' E 140°01'0 0.0
2016-Feb-09 05:33N 35°32' E 140°01'0 0.0
2016-Feb-09 04:31N 35°32' E 140°01'0 0.0
2016-Feb-09 03:32N 35°32' E 140°01'0 0.0
2016-Feb-09 02:30N 35°32' E 140°01'0 0.0
2016-Feb-09 01:33N 35°32' E 140°01'0 0.1
2016-Feb-09 00:28N 35°32' E 140°01'0 0.0
2016-Feb-08 23:32N 35°32' E 140°01'0 0.0
2016-Feb-08 22:31N 35°32' E 140°01'0 0.0
2016-Feb-08 21:33N 35°32' E 140°01'0 0.0
2016-Feb-08 20:33N 35°32' E 140°01'0 0.0
2016-Feb-08 19:34N 35°32' E 140°01'0 0.0
2016-Feb-08 18:33N 35°32' E 140°01'0 0.0
2016-Feb-08 17:33N 35°32' E 140°01'0 0.1
2016-Feb-08 16:33N 35°32' E 140°01'0 0.0
2016-Feb-08 15:33N 35°32' E 140°01'0 0.0
2016-Feb-08 14:33N 35°32' E 140°01'0 0.0
2016-Feb-08 13:33N 35°32' E 140°01'0 0.0
2016-Feb-08 12:33N 35°32' E 140°01'7 7.5
2016-Feb-08 11:34N 35°31' E 139°52'5 4.7
2016-Feb-08 10:34N 35°31' E 139°46'0 0.0
2016-Feb-08 09:33N 35°31' E 139°46'0 0.0
2016-Feb-08 08:34N 35°31' E 139°46'0 0.0
2016-Feb-08 07:33N 35°31' E 139°46'0 0.0
2016-Feb-08 06:34N 35°31' E 139°46'0 0.0
2016-Feb-08 05:34N 35°31' E 139°46'0 0.0
2016-Feb-08 04:33N 35°31' E 139°46'0 0.4
2016-Feb-08 03:34N 35°30' E 139°47'1111.0
2016-Feb-08 02:34N 35°20' E 139°44'1312.0
2016-Feb-08 01:27N 35°06' E 139°45'6412.4
2016-Feb-07 20:20N 34°34' E 138°38'17810.6
2016-Feb-07 03:33N 34°08' E 135°04'2 0.6
2016-Feb-06 23:33N 34°08' E 135°07'0 0.2
2016-Feb-06 22:31N 34°07' E 135°07'0 0.0
2016-Feb-06 21:29N 34°07' E 135°07'0 0.0
2016-Feb-06 20:32N 34°07' E 135°07'1 0.7
2016-Feb-06 19:34N 34°08' E 135°07'240 9.6
2016-Feb-05 18:33N 35°15' E 139°46'1111.2
2016-Feb-05 17:33N 35°26' E 139°45'5 5.3
2016-Feb-05 16:33N 35°31' E 139°46'0 0.0
2016-Feb-05 15:33N 35°31' E 139°46'0 0.0
2016-Feb-05 14:33N 35°31' E 139°46'0 0.0
2016-Feb-05 13:33N 35°31' E 139°46'0 0.0
2016-Feb-05 12:33N 35°31' E 139°46'0 0.0
2016-Feb-05 11:33N 35°31' E 139°46'0 0.0
2016-Feb-05 10:33N 35°31' E 139°46'0 0.0
2016-Feb-05 09:33N 35°31' E 139°46'0 0.0
2016-Feb-05 08:33N 35°31' E 139°46'0 0.0
2016-Feb-05 07:33N 35°31' E 139°46'0 0.0
2016-Feb-05 06:33N 35°31' E 139°46'0 0.0
2016-Feb-05 05:33N 35°31' E 139°46'0 0.0
2016-Feb-05 04:33N 35°31' E 139°46'0 0.0
2016-Feb-05 03:33N 35°31' E 139°46'0 0.2
2016-Feb-05 02:33N 35°31' E 139°46'3 2.9
2016-Feb-05 01:33N 35°29' E 139°48'0 0.0
2016-Feb-05 00:33N 35°29' E 139°48'0 0.0
2016-Feb-04 23:33N 35°29' E 139°48'0 0.0
2016-Feb-04 22:33N 35°29' E 139°48'0 0.0
2016-Feb-04 21:33N 35°29' E 139°48'0 0.0
2016-Feb-04 20:33N 35°29' E 139°48'0 0.0
2016-Feb-04 19:33N 35°29' E 139°48'0 0.0
2016-Feb-04 18:33N 35°29' E 139°48'0 0.0
2016-Feb-04 17:33N 35°29' E 139°49'0 0.0
2016-Feb-04 16:33N 35°29' E 139°49'0 0.1
2016-Feb-04 15:33N 35°29' E 139°48'0 0.0
2016-Feb-04 14:33N 35°29' E 139°48'0 0.1
2016-Feb-04 13:33N 35°29' E 139°48'0 0.0
2016-Feb-04 12:33N 35°29' E 139°49'1110.7
2016-Feb-04 11:33N 35°31' E 140°01'1 1.0
2016-Feb-04 10:33N 35°31' E 140°02'0 0.0
2016-Feb-04 09:33N 35°31' E 140°02'0 0.0
2016-Feb-04 08:33N 35°31' E 140°02'1 0.9
2016-Feb-04 07:33N 35°31' E 140°01'0 0.0
2016-Feb-04 06:33N 35°31' E 140°01'0 0.0
2016-Feb-04 05:33N 35°31' E 140°01'0 0.0
2016-Feb-04 04:32N 35°31' E 140°01'0 0.0
2016-Feb-04 03:33N 35°31' E 140°01'1 1.4
2016-Feb-04 02:33N 35°31' E 139°60'1111.0
2016-Feb-04 01:33N 35°31' E 139°46'0 0.0
2016-Feb-04 00:33N 35°31' E 139°46'0 0.0
2016-Feb-03 23:33N 35°31' E 139°46'0 0.0
2016-Feb-03 22:33N 35°31' E 139°46'2 2.3
2016-Feb-03 21:33N 35°29' E 139°48'0 0.2
2016-Feb-03 20:33N 35°29' E 139°48'0 0.0
2016-Feb-03 19:33N 35°29' E 139°48'0 0.0
2016-Feb-03 18:33N 35°29' E 139°48'0 0.0
2016-Feb-03 17:33N 35°29' E 139°48'0 0.0
2016-Feb-03 16:33N 35°29' E 139°48'0 0.0
2016-Feb-03 15:33N 35°29' E 139°48'0 0.0
2016-Feb-03 14:33N 35°29' E 139°48'0 0.0
2016-Feb-03 13:33N 35°29' E 139°48'0 0.0
2016-Feb-03 12:34N 35°29' E 139°48'1111.2
2016-Feb-03 11:33N 35°31' E 140°02'1 0.8
2016-Feb-03 10:33N 35°31' E 140°02'0 0.0
2016-Feb-03 09:34N 35°31' E 140°02'0 0.0
2016-Feb-03 08:34N 35°31' E 140°02'1 0.8
2016-Feb-03 07:33N 35°31' E 140°01'0 0.0
2016-Feb-03 06:33N 35°31' E 140°01'4 2.0
2016-Feb-03 04:32N 35°31' E 139°56'8 8.4
2016-Feb-03 03:34N 35°31' E 139°46'0 0.0
2016-Feb-03 02:34N 35°31' E 139°46'0 0.0
2016-Feb-03 01:33N 35°31' E 139°46'0 0.0
2016-Feb-03 00:34N 35°31' E 139°46'3 3.4
2016-Feb-02 23:34N 35°30' E 139°50'7 6.7
2016-Feb-02 22:33N 35°31' E 139°59'0 0.0
2016-Feb-02 21:33N 35°31' E 139°59'0 0.0
2016-Feb-02 20:33N 35°31' E 139°59'0 0.0
2016-Feb-02 19:33N 35°31' E 139°59'0 0.0
2016-Feb-02 18:34N 35°31' E 139°59'0 0.0
2016-Feb-02 17:33N 35°31' E 139°59'0 0.0
2016-Feb-02 16:34N 35°31' E 139°59'0 0.0
2016-Feb-02 15:33N 35°31' E 139°59'3 3.2
2016-Feb-02 14:33N 35°31' E 140°02'0 0.0
2016-Feb-02 13:33N 35°31' E 140°02'0 0.0
2016-Feb-02 12:33N 35°31' E 140°02'0 0.0
2016-Feb-02 11:33N 35°31' E 140°02'0 0.0
2016-Feb-02 10:33N 35°31' E 140°02'0 0.0
2016-Feb-02 09:33N 35°31' E 140°02'0 0.0
2016-Feb-02 08:33N 35°31' E 140°02'0 0.0
2016-Feb-02 07:33N 35°31' E 140°02'0 0.0
2016-Feb-02 06:33N 35°31' E 140°02'1 1.0
2016-Feb-02 05:33N 35°32' E 140°02'0 0.1
2016-Feb-02 04:33N 35°32' E 140°02'0 0.0
2016-Feb-02 03:33N 35°32' E 140°02'0 0.0
2016-Feb-02 02:33N 35°32' E 140°02'7 7.3
2016-Feb-02 01:33N 35°31' E 139°53'5 5.3
2016-Feb-02 00:33N 35°31' E 139°46'0 0.0
2016-Feb-01 23:33N 35°31' E 139°46'0 0.0
2016-Feb-01 22:34N 35°31' E 139°46'2 2.1
2016-Feb-01 21:34N 35°29' E 139°48'1 0.6
2016-Feb-01 20:33N 35°29' E 139°48'0 0.0
2016-Feb-01 19:33N 35°29' E 139°48'0 0.0
2016-Feb-01 18:34N 35°29' E 139°48'0 0.0
2016-Feb-01 17:34N 35°29' E 139°48'0 0.0
2016-Feb-01 16:34N 35°29' E 139°48'0 0.0
2016-Feb-01 15:33N 35°29' E 139°48'5 5.0
2016-Feb-01 14:34N 35°24' E 139°46'1211.9
2016-Feb-01 13:34N 35°12' E 139°47'24411.1
2016-Jan-31 15:32N 34°05' E 135°02'5 4.9
2016-Jan-31 14:33N 34°07' E 135°07'0 0.0
2016-Jan-31 12:19N 34°07' E 135°07'  
Track history (hours):
 
Tides and Currents Weather Stations Pressure Air Temp Water Temp Dewpoint Dewpoint Depression Visibility Wind Speed Wind Dir Waves Ship Positions

Eiwamaru

Last reported at 2016-Feb-10 11:33 UTC. Time now 2016-Feb-11 00:27 UTC.
Position N 35°15' E 139°46'.

Length 80 m; draft 5.4 m.

Type: Tanker. MMSI: 431101045.

Date/timePositionNaut miles runAvg speedWind from/ knotsBaromVisibWave heightAir tempDewpointWater temp
2016-Feb-10 11:33N 35°15' E 139°46'1211.8
2016-Feb-10 10:33N 35°27' E 139°45'4 4.2
2016-Feb-10 09:33N 35°31' E 139°46'0 0.0
2016-Feb-10 08:33N 35°31' E 139°46'0 0.0
2016-Feb-10 07:33N 35°31' E 139°46'0 0.0
2016-Feb-10 06:33N 35°31' E 139°46'7 7.1
2016-Feb-10 05:33N 35°31' E 139°55'6 6.0
2016-Feb-10 04:33N 35°31' E 140°03'0 0.0
2016-Feb-10 03:33N 35°31' E 140°02'0 0.0
2016-Feb-10 02:33N 35°31' E 140°02'0 0.0
2016-Feb-10 01:33N 35°31' E 140°02'0 0.0
2016-Feb-10 00:33N 35°31' E 140°02'0 0.0
2016-Feb-09 23:33N 35°31' E 140°03'0 0.0
2016-Feb-09 22:33N 35°31' E 140°03'1 1.3
2016-Feb-09 21:33N 35°32' E 140°01'0 0.0
2016-Feb-09 20:33N 35°32' E 140°01'0 0.0
2016-Feb-09 19:33N 35°32' E 140°01'0 0.0
2016-Feb-09 18:33N 35°32' E 140°01'0 0.0
2016-Feb-09 17:32N 35°32' E 140°01'0 0.0
2016-Feb-09 16:33N 35°32' E 140°01'0 0.0
2016-Feb-09 15:33N 35°32' E 140°01'0 0.0
2016-Feb-09 14:33N 35°32' E 140°01'0 0.0
2016-Feb-09 13:33N 35°32' E 140°01'0 0.0
2016-Feb-09 12:32N 35°32' E 140°01'0 0.0
2016-Feb-09 11:31N 35°32' E 140°01'0 0.0
2016-Feb-09 10:32N 35°32' E 140°01'0 0.0
2016-Feb-09 09:33N 35°32' E 140°01'0 0.0
2016-Feb-09 08:33N 35°32' E 140°01'0 0.1
2016-Feb-09 07:32N 35°32' E 140°01'0 0.0
2016-Feb-09 06:26N 35°32' E 140°01'0 0.0
2016-Feb-09 05:33N 35°32' E 140°01'0 0.0
2016-Feb-09 04:31N 35°32' E 140°01'0 0.0
2016-Feb-09 03:32N 35°32' E 140°01'0 0.0
2016-Feb-09 02:30N 35°32' E 140°01'0 0.0
2016-Feb-09 01:33N 35°32' E 140°01'0 0.1
2016-Feb-09 00:28N 35°32' E 140°01'0 0.0
2016-Feb-08 23:32N 35°32' E 140°01'0 0.0
2016-Feb-08 22:31N 35°32' E 140°01'0 0.0
2016-Feb-08 21:33N 35°32' E 140°01'0 0.0
2016-Feb-08 20:33N 35°32' E 140°01'0 0.0
2016-Feb-08 19:34N 35°32' E 140°01'0 0.0
2016-Feb-08 18:33N 35°32' E 140°01'0 0.0
2016-Feb-08 17:33N 35°32' E 140°01'0 0.1
2016-Feb-08 16:33N 35°32' E 140°01'0 0.0
2016-Feb-08 15:33N 35°32' E 140°01'0 0.0
2016-Feb-08 14:33N 35°32' E 140°01'0 0.0
2016-Feb-08 13:33N 35°32' E 140°01'0 0.0
2016-Feb-08 12:33N 35°32' E 140°01'7 7.5
2016-Feb-08 11:34N 35°31' E 139°52'5 4.7
2016-Feb-08 10:34N 35°31' E 139°46'0 0.0
2016-Feb-08 09:33N 35°31' E 139°46'0 0.0
2016-Feb-08 08:34N 35°31' E 139°46'0 0.0
2016-Feb-08 07:33N 35°31' E 139°46'0 0.0
2016-Feb-08 06:34N 35°31' E 139°46'0 0.0
2016-Feb-08 05:34N 35°31' E 139°46'0 0.0
2016-Feb-08 04:33N 35°31' E 139°46'0 0.4
2016-Feb-08 03:34N 35°30' E 139°47'1111.0
2016-Feb-08 02:34N 35°20' E 139°44'1312.0
2016-Feb-08 01:27N 35°06' E 139°45'6412.4
2016-Feb-07 20:20N 34°34' E 138°38'17810.6
2016-Feb-07 03:33N 34°08' E 135°04'2 0.6
2016-Feb-06 23:33N 34°08' E 135°07'0 0.2
2016-Feb-06 22:31N 34°07' E 135°07'0 0.0
2016-Feb-06 21:29N 34°07' E 135°07'0 0.0
2016-Feb-06 20:32N 34°07' E 135°07'1 0.7
2016-Feb-06 19:34N 34°08' E 135°07'240 9.6
2016-Feb-05 18:33N 35°15' E 139°46'1111.2
2016-Feb-05 17:33N 35°26' E 139°45'5 5.3
2016-Feb-05 16:33N 35°31' E 139°46'0 0.0
2016-Feb-05 15:33N 35°31' E 139°46'0 0.0
2016-Feb-05 14:33N 35°31' E 139°46'0 0.0
2016-Feb-05 13:33N 35°31' E 139°46'0 0.0
2016-Feb-05 12:33N 35°31' E 139°46'0 0.0
2016-Feb-05 11:33N 35°31' E 139°46'0 0.0
2016-Feb-05 10:33N 35°31' E 139°46'0 0.0
2016-Feb-05 09:33N 35°31' E 139°46'0 0.0
2016-Feb-05 08:33N 35°31' E 139°46'0 0.0
2016-Feb-05 07:33N 35°31' E 139°46'0 0.0
2016-Feb-05 06:33N 35°31' E 139°46'0 0.0
2016-Feb-05 05:33N 35°31' E 139°46'0 0.0
2016-Feb-05 04:33N 35°31' E 139°46'0 0.0
2016-Feb-05 03:33N 35°31' E 139°46'0 0.2
2016-Feb-05 02:33N 35°31' E 139°46'3 2.9
2016-Feb-05 01:33N 35°29' E 139°48'0 0.0
2016-Feb-05 00:33N 35°29' E 139°48'0 0.0
2016-Feb-04 23:33N 35°29' E 139°48'0 0.0
2016-Feb-04 22:33N 35°29' E 139°48'0 0.0
2016-Feb-04 21:33N 35°29' E 139°48'0 0.0
2016-Feb-04 20:33N 35°29' E 139°48'0 0.0
2016-Feb-04 19:33N 35°29' E 139°48'0 0.0
2016-Feb-04 18:33N 35°29' E 139°48'0 0.0
2016-Feb-04 17:33N 35°29' E 139°49'0 0.0
2016-Feb-04 16:33N 35°29' E 139°49'0 0.1
2016-Feb-04 15:33N 35°29' E 139°48'0 0.0
2016-Feb-04 14:33N 35°29' E 139°48'0 0.1
2016-Feb-04 13:33N 35°29' E 139°48'0 0.0
2016-Feb-04 12:33N 35°29' E 139°49'1110.7
2016-Feb-04 11:33N 35°31' E 140°01'1 1.0
2016-Feb-04 10:33N 35°31' E 140°02'0 0.0
2016-Feb-04 09:33N 35°31' E 140°02'0 0.0
2016-Feb-04 08:33N 35°31' E 140°02'1 0.9
2016-Feb-04 07:33N 35°31' E 140°01'0 0.0
2016-Feb-04 06:33N 35°31' E 140°01'0 0.0
2016-Feb-04 05:33N 35°31' E 140°01'0 0.0
2016-Feb-04 04:32N 35°31' E 140°01'0 0.0
2016-Feb-04 03:33N 35°31' E 140°01'1 1.4
2016-Feb-04 02:33N 35°31' E 139°60'1111.0
2016-Feb-04 01:33N 35°31' E 139°46'0 0.0
2016-Feb-04 00:33N 35°31' E 139°46'0 0.0
2016-Feb-03 23:33N 35°31' E 139°46'0 0.0
2016-Feb-03 22:33N 35°31' E 139°46'2 2.3
2016-Feb-03 21:33N 35°29' E 139°48'0 0.2
2016-Feb-03 20:33N 35°29' E 139°48'0 0.0
2016-Feb-03 19:33N 35°29' E 139°48'0 0.0
2016-Feb-03 18:33N 35°29' E 139°48'0 0.0
2016-Feb-03 17:33N 35°29' E 139°48'0 0.0
2016-Feb-03 16:33N 35°29' E 139°48'0 0.0
2016-Feb-03 15:33N 35°29' E 139°48'0 0.0
2016-Feb-03 14:33N 35°29' E 139°48'0 0.0
2016-Feb-03 13:33N 35°29' E 139°48'0 0.0
2016-Feb-03 12:34N 35°29' E 139°48'1111.2
2016-Feb-03 11:33N 35°31' E 140°02'1 0.8
2016-Feb-03 10:33N 35°31' E 140°02'0 0.0
2016-Feb-03 09:34N 35°31' E 140°02'0 0.0
2016-Feb-03 08:34N 35°31' E 140°02'1 0.8
2016-Feb-03 07:33N 35°31' E 140°01'0 0.0
2016-Feb-03 06:33N 35°31' E 140°01'4 2.0
2016-Feb-03 04:32N 35°31' E 139°56'8 8.4
2016-Feb-03 03:34N 35°31' E 139°46'0 0.0
2016-Feb-03 02:34N 35°31' E 139°46'0 0.0
2016-Feb-03 01:33N 35°31' E 139°46'0 0.0
2016-Feb-03 00:34N 35°31' E 139°46'3 3.4
2016-Feb-02 23:34N 35°30' E 139°50'7 6.7
2016-Feb-02 22:33N 35°31' E 139°59'0 0.0
2016-Feb-02 21:33N 35°31' E 139°59'0 0.0
2016-Feb-02 20:33N 35°31' E 139°59'0 0.0
2016-Feb-02 19:33N 35°31' E 139°59'0 0.0
2016-Feb-02 18:34N 35°31' E 139°59'0 0.0
2016-Feb-02 17:33N 35°31' E 139°59'0 0.0
2016-Feb-02 16:34N 35°31' E 139°59'0 0.0
2016-Feb-02 15:33N 35°31' E 139°59'3 3.2
2016-Feb-02 14:33N 35°31' E 140°02'0 0.0
2016-Feb-02 13:33N 35°31' E 140°02'0 0.0
2016-Feb-02 12:33N 35°31' E 140°02'0 0.0
2016-Feb-02 11:33N 35°31' E 140°02'0 0.0
2016-Feb-02 10:33N 35°31' E 140°02'0 0.0
2016-Feb-02 09:33N 35°31' E 140°02'0 0.0
2016-Feb-02 08:33N 35°31' E 140°02'0 0.0
2016-Feb-02 07:33N 35°31' E 140°02'0 0.0
2016-Feb-02 06:33N 35°31' E 140°02'1 1.0
2016-Feb-02 05:33N 35°32' E 140°02'0 0.1
2016-Feb-02 04:33N 35°32' E 140°02'0 0.0
2016-Feb-02 03:33N 35°32' E 140°02'0 0.0
2016-Feb-02 02:33N 35°32' E 140°02'7 7.3
2016-Feb-02 01:33N 35°31' E 139°53'5 5.3
2016-Feb-02 00:33N 35°31' E 139°46'0 0.0
2016-Feb-01 23:33N 35°31' E 139°46'0 0.0
2016-Feb-01 22:34N 35°31' E 139°46'2 2.1
2016-Feb-01 21:34N 35°29' E 139°48'1 0.6
2016-Feb-01 20:33N 35°29' E 139°48'0 0.0
2016-Feb-01 19:33N 35°29' E 139°48'0 0.0
2016-Feb-01 18:34N 35°29' E 139°48'0 0.0
2016-Feb-01 17:34N 35°29' E 139°48'0 0.0
2016-Feb-01 16:34N 35°29' E 139°48'0 0.0
2016-Feb-01 15:33N 35°29' E 139°48'5 5.0
2016-Feb-01 14:34N 35°24' E 139°46'1211.9
2016-Feb-01 13:34N 35°12' E 139°47'24411.1
2016-Jan-31 15:32N 34°05' E 135°02'5 4.9
2016-Jan-31 14:33N 34°07' E 135°07'0 0.0
2016-Jan-31 12:19N 34°07' E 135°07'  

Dump ship's entire track history